createdAt,value
2022-12-12T00:01:29.929Z,-2.18
2022-12-12T00:03:57.617Z,-1.72
2022-12-12T00:06:25.093Z,-2.10
2022-12-12T00:08:52.616Z,-2.04
2022-12-12T00:11:20.543Z,-1.84
2022-12-12T00:13:48.004Z,-1.84
2022-12-12T00:16:15.778Z,-1.67
2022-12-12T00:18:43.406Z,-1.88
2022-12-12T00:21:15.448Z,-1.57
2022-12-12T00:23:43.185Z,-1.66
2022-12-12T00:26:18.360Z,-1.95
2022-12-12T00:28:46.100Z,-2.11
2022-12-12T00:31:13.501Z,-1.59
2022-12-12T00:33:40.892Z,-1.81
2022-12-12T00:36:08.842Z,-1.88
2022-12-12T00:38:36.159Z,-1.73
2022-12-12T00:41:03.779Z,-2.02
2022-12-12T00:43:31.354Z,-1.88
2022-12-12T00:45:59.531Z,-1.80
2022-12-12T00:48:27.121Z,-1.95
2022-12-12T00:50:55.596Z,-2.26
2022-12-12T00:53:23.267Z,-1.69
2022-12-12T00:55:57.407Z,-2.28
2022-12-12T00:58:25.539Z,-1.99
2022-12-12T01:00:53.446Z,-1.84
2022-12-12T01:03:20.836Z,-2.06
2022-12-12T01:05:49.254Z,-1.81
2022-12-12T01:08:16.753Z,-2.02
2022-12-12T01:10:44.374Z,-2.11
2022-12-12T01:13:12.000Z,-2.17
2022-12-12T01:15:39.333Z,-2.21
2022-12-12T01:18:06.669Z,-1.93
2022-12-12T01:20:34.304Z,-1.81
2022-12-12T01:23:01.682Z,-1.77
2022-12-12T01:25:29.033Z,-1.01
2022-12-12T01:27:56.630Z,-1.66
2022-12-12T01:30:24.071Z,-1.99
2022-12-12T01:32:51.436Z,-2.00
2022-12-12T01:35:19.167Z,-1.89
2022-12-12T01:37:46.531Z,-1.70
2022-12-12T01:40:24.526Z,-1.81
2022-12-12T01:42:52.333Z,-1.84
2022-12-12T01:45:57.833Z,-1.91
2022-12-12T01:48:30.692Z,-2.10
2022-12-12T01:50:59.008Z,-2.41
2022-12-12T01:53:26.891Z,-2.08
2022-12-12T01:55:55.045Z,-2.35
2022-12-12T01:58:22.393Z,-2.17
2022-12-12T02:00:50.129Z,-1.78
2022-12-12T02:03:17.766Z,-2.22
2022-12-12T02:05:52.528Z,-2.09
2022-12-12T02:08:21.447Z,-2.19
2022-12-12T02:10:49.024Z,-2.32
2022-12-12T02:13:18.354Z,-1.36
2022-12-12T02:15:56.765Z,-1.99
2022-12-12T02:18:36.116Z,-1.99
2022-12-12T02:21:19.004Z,-1.64
2022-12-12T02:24:25.897Z,-2.19
2022-12-12T02:27:06.075Z,-1.95
2022-12-12T02:30:01.249Z,-1.95
2022-12-12T02:32:54.216Z,-2.38
2022-12-12T02:35:46.451Z,-1.85
2022-12-12T02:38:16.904Z,-2.13
2022-12-12T02:40:51.256Z,-1.94
2022-12-12T02:43:46.141Z,-1.88
2022-12-12T02:46:18.070Z,-2.10
2022-12-12T02:48:49.420Z,-1.78
2022-12-12T02:51:16.860Z,-1.75
2022-12-12T02:53:44.184Z,-1.99
2022-12-12T02:56:45.896Z,-2.19
2022-12-12T02:59:32.509Z,-2.36
2022-12-12T03:02:20.852Z,-2.10
2022-12-12T03:05:24.296Z,-2.20
2022-12-12T03:08:00.399Z,-1.98
2022-12-12T03:10:32.706Z,-1.79
2022-12-12T03:13:33.698Z,-1.70
2022-12-12T03:16:09.578Z,-2.33
2022-12-12T03:18:52.061Z,-2.03
2022-12-12T03:21:48.686Z,-2.32
2022-12-12T03:24:40.043Z,-2.17
2022-12-12T03:27:13.467Z,-2.11
2022-12-12T03:29:46.686Z,-2.54
2022-12-12T03:32:25.942Z,-2.63
2022-12-12T03:34:57.741Z,-2.42
2022-12-12T03:37:31.753Z,-2.11
2022-12-12T03:40:10.420Z,-2.33
2022-12-12T03:43:05.828Z,-1.95
2022-12-12T03:45:44.917Z,-1.80
2022-12-12T03:48:24.011Z,-1.99
2022-12-12T03:50:57.576Z,-1.89
2022-12-12T03:53:27.414Z,-2.05
2022-12-12T03:56:19.085Z,-1.70
2022-12-12T03:58:53.148Z,-2.09
2022-12-12T04:01:22.509Z,-1.91
2022-12-12T04:04:00.248Z,-1.87
2022-12-12T04:06:35.795Z,-1.09
2022-12-12T04:09:40.359Z,-1.48
2022-12-12T04:13:03.376Z,-1.57
2022-12-12T04:15:36.613Z,-1.57
2022-12-12T04:18:10.344Z,-1.04
2022-12-12T04:21:02.068Z,-1.47
2022-12-12T04:23:55.494Z,-1.00
2022-12-12T04:26:40.724Z,-1.57
2022-12-12T04:29:20.687Z,-1.43
2022-12-12T04:32:06.513Z,-2.19
2022-12-12T04:34:59.235Z,-1.46
2022-12-12T04:37:32.343Z,-2.14
2022-12-12T04:40:01.419Z,-1.69
2022-12-12T04:42:32.556Z,-2.23
2022-12-12T04:45:12.393Z,-2.28
2022-12-12T04:47:40.164Z,-2.25
2022-12-12T04:50:08.170Z,-1.86
2022-12-12T04:52:35.525Z,-1.92
2022-12-12T04:55:14.103Z,-1.69
2022-12-12T04:57:43.955Z,-1.72
2022-12-12T05:00:12.612Z,-1.90
2022-12-12T05:02:50.008Z,-1.56
2022-12-12T05:05:36.899Z,-0.88
2022-12-12T05:08:17.863Z,-1.58
2022-12-12T05:10:46.179Z,-1.44
2022-12-12T05:13:18.730Z,-1.78
2022-12-12T05:15:46.555Z,-1.50
2022-12-12T05:18:13.938Z,-1.61
2022-12-12T05:20:41.347Z,-1.90
2022-12-12T05:23:09.040Z,-1.24
2022-12-12T05:25:36.396Z,-1.65
2022-12-12T05:28:03.751Z,-1.48
2022-12-12T05:30:31.359Z,-1.56
2022-12-12T05:32:58.769Z,-1.09
2022-12-12T05:35:26.823Z,-1.47
2022-12-12T05:37:54.464Z,-1.23
2022-12-12T05:40:21.920Z,-1.09
2022-12-12T05:42:49.329Z,-1.42
2022-12-12T05:45:16.963Z,-1.69
2022-12-12T05:47:44.296Z,-1.92
2022-12-12T05:50:11.651Z,-1.28
2022-12-12T05:52:39.252Z,-1.53
2022-12-12T05:55:07.165Z,-1.27
2022-12-12T05:57:34.535Z,-1.47
2022-12-12T06:00:02.292Z,-1.23
2022-12-12T06:02:32.423Z,-1.40
2022-12-12T06:05:00.093Z,-1.78
2022-12-12T06:07:27.441Z,-1.58
2022-12-12T06:09:55.934Z,-1.80
2022-12-12T06:12:23.648Z,-2.50
2022-12-12T06:14:50.971Z,-1.91
2022-12-12T06:17:18.409Z,-2.23
2022-12-12T06:19:46.140Z,-1.74
2022-12-12T06:22:13.486Z,-1.44
2022-12-12T06:24:41.346Z,-1.08
2022-12-12T06:27:08.924Z,-1.21
2022-12-12T06:29:36.256Z,-1.68
2022-12-12T06:32:03.662Z,-0.65
2022-12-12T06:34:31.266Z,-0.60
2022-12-12T06:36:58.601Z,-0.57
2022-12-12T06:39:25.965Z,-0.71
2022-12-12T06:41:53.663Z,-0.55
2022-12-12T06:44:21.042Z,-1.17
2022-12-12T06:46:48.403Z,-0.59
2022-12-12T06:49:16.019Z,-0.40
2022-12-12T06:51:46.416Z,-0.71
2022-12-12T06:54:14.283Z,-0.75
2022-12-12T06:56:47.736Z,-1.16
2022-12-12T06:59:16.380Z,-1.03
2022-12-12T07:01:44.330Z,-1.62
2022-12-12T07:04:12.087Z,-1.26
2022-12-12T07:06:39.474Z,-0.93
2022-12-12T07:09:07.211Z,-0.85
2022-12-12T07:11:34.589Z,-1.31
2022-12-12T07:14:03.878Z,-0.74
2022-12-12T07:16:31.664Z,-0.75
2022-12-12T07:18:59.026Z,-0.95
2022-12-12T07:21:26.439Z,-0.41
2022-12-12T07:23:54.055Z,-1.29
2022-12-12T07:26:22.123Z,-0.66
2022-12-12T07:28:50.080Z,-1.12
2022-12-12T07:31:19.655Z,-1.26
2022-12-12T07:33:47.108Z,-0.65
2022-12-12T07:36:14.994Z,-0.09
2022-12-12T07:38:42.910Z,-0.18
2022-12-12T07:41:12.441Z,-0.66
2022-12-12T07:43:43.898Z,-0.25
2022-12-12T07:46:14.944Z,-0.60
2022-12-12T07:48:42.446Z,0.01
2022-12-12T07:51:09.755Z,-0.31
2022-12-12T07:53:37.360Z,-0.36
2022-12-12T07:56:09.004Z,-0.05
2022-12-12T07:58:36.976Z,-0.55
2022-12-12T08:01:21.782Z,-0.71
2022-12-12T08:03:49.833Z,-0.41
2022-12-12T08:06:17.595Z,-0.71
2022-12-12T08:08:45.500Z,-0.36
2022-12-12T08:11:14.284Z,-0.22
2022-12-12T08:13:41.875Z,-0.01
2022-12-12T08:16:19.680Z,-0.21
2022-12-12T08:18:47.845Z,0.01
2022-12-12T08:21:21.294Z,0.09
2022-12-12T08:23:52.706Z,0.01
2022-12-12T08:26:20.046Z,-0.42
2022-12-12T08:28:49.394Z,-0.91
2022-12-12T08:31:17.676Z,-0.70
2022-12-12T08:33:45.317Z,-0.31
2022-12-12T08:36:17.787Z,-0.07
2022-12-12T08:38:45.551Z,-0.59
2022-12-12T08:41:13.257Z,-0.39
2022-12-12T08:43:41.119Z,-0.65
2022-12-12T08:46:13.700Z,-0.74
2022-12-12T08:48:44.384Z,-0.18
2022-12-12T08:51:13.119Z,-0.03
2022-12-12T08:53:40.457Z,-0.11
2022-12-12T08:56:08.032Z,0.22
2022-12-12T08:58:35.846Z,-0.11
2022-12-12T09:01:03.765Z,-0.27
2022-12-12T09:03:31.156Z,-1.16
2022-12-12T09:05:58.945Z,-0.24
2022-12-12T09:08:26.505Z,0.36
2022-12-12T09:10:53.929Z,-0.34
2022-12-12T09:13:21.664Z,-0.13
2022-12-12T09:15:52.355Z,0.07
2022-12-12T09:18:20.290Z,-0.51
2022-12-12T09:20:51.783Z,-0.48
2022-12-12T09:23:19.424Z,-0.90
2022-12-12T09:25:46.918Z,-0.87
2022-12-12T09:28:15.988Z,-0.32
2022-12-12T09:30:43.465Z,-0.23
2022-12-12T09:33:10.937Z,-0.19
2022-12-12T09:35:38.559Z,-0.72
2022-12-12T09:38:10.880Z,-0.11
2022-12-12T09:41:02.533Z,-0.35
2022-12-12T09:44:18.583Z,-0.17
2022-12-12T09:46:47.757Z,-0.27
2022-12-12T09:49:30.313Z,-0.37
2022-12-12T09:51:57.995Z,-0.72
2022-12-12T09:54:25.876Z,-0.45
2022-12-12T09:57:17.828Z,-0.11
2022-12-12T10:00:04.795Z,-0.61
2022-12-12T10:02:48.625Z,0.05
2022-12-12T10:06:35.448Z,0.30
2022-12-12T10:09:00.514Z,-0.03
2022-12-12T10:11:49.299Z,0.90
2022-12-12T10:14:46.172Z,0.86
2022-12-12T10:17:28.134Z,0.84
2022-12-12T10:20:05.430Z,0.72
2022-12-12T10:22:37.432Z,0.44
2022-12-12T10:25:24.063Z,1.18
2022-12-12T10:27:59.955Z,0.41
2022-12-12T10:30:27.348Z,1.23
2022-12-12T10:33:16.046Z,1.27
2022-12-12T10:36:07.012Z,0.81
2022-12-12T10:38:56.879Z,0.31
2022-12-12T10:41:33.509Z,0.53
2022-12-12T10:44:05.762Z,1.17
2022-12-12T10:46:51.866Z,0.27
2022-12-12T10:49:20.248Z,0.59
2022-12-12T10:51:47.829Z,0.31
2022-12-12T10:54:18.474Z,0.24
2022-12-12T10:57:19.879Z,0.63
2022-12-12T10:59:53.471Z,-0.21
2022-12-12T11:02:22.886Z,0.67
2022-12-12T11:05:01.623Z,0.01
2022-12-12T11:07:29.452Z,0.01
2022-12-12T11:10:01.924Z,0.95
2022-12-12T11:12:34.761Z,0.90
2022-12-12T11:15:14.666Z,0.22
2022-12-12T11:17:42.574Z,0.43
2022-12-12T11:20:16.360Z,0.37
2022-12-12T11:22:44.042Z,0.71
2022-12-12T11:25:29.819Z,0.69
2022-12-12T11:28:04.803Z,0.35
2022-12-12T11:30:34.761Z,0.83
2022-12-12T11:33:02.486Z,0.89
2022-12-12T11:35:45.617Z,0.90
2022-12-12T11:38:17.261Z,0.82
2022-12-12T11:40:44.612Z,0.88
2022-12-12T11:43:27.672Z,1.11
2022-12-12T11:46:05.869Z,0.86
2022-12-12T11:48:49.406Z,0.93
2022-12-12T11:51:33.008Z,1.31
2022-12-12T11:54:00.736Z,1.22
2022-12-12T11:56:43.579Z,1.26
2022-12-12T11:59:10.875Z,0.36
2022-12-12T12:01:48.678Z,0.82
2022-12-12T12:04:30.420Z,-0.16
2022-12-12T12:07:11.026Z,0.56
2022-12-12T12:09:51.252Z,-0.25
2022-12-12T12:12:23.550Z,0.16
2022-12-12T12:14:57.863Z,0.39
2022-12-12T12:17:50.588Z,0.70
2022-12-12T12:20:29.743Z,0.36
2022-12-12T12:23:17.559Z,0.85
2022-12-12T12:25:56.674Z,0.42
2022-12-12T12:28:34.426Z,-0.30
2022-12-12T12:31:14.353Z,0.11
2022-12-12T12:33:47.651Z,-0.28
2022-12-12T12:36:22.654Z,-0.21
2022-12-12T12:39:04.350Z,0.61
2022-12-12T12:41:38.468Z,0.95
2022-12-12T12:44:38.144Z,0.48
2022-12-12T12:47:41.889Z,1.16
2022-12-12T12:50:18.218Z,0.68
2022-12-12T12:52:51.725Z,0.40
2022-12-12T12:55:20.811Z,0.25
2022-12-12T12:57:49.312Z,0.08
2022-12-12T13:00:19.594Z,0.32
2022-12-12T13:02:47.168Z,0.43
2022-12-12T13:05:14.771Z,0.40
2022-12-12T13:08:04.355Z,0.39
2022-12-12T13:10:32.204Z,0.43
2022-12-12T13:13:25.433Z,0.28
2022-12-12T13:16:27.030Z,0.38
2022-12-12T13:19:05.630Z,-0.39
2022-12-12T13:21:44.068Z,-0.39
2022-12-12T13:24:19.597Z,-0.41
2022-12-12T13:26:56.559Z,0.21
2022-12-12T13:29:45.889Z,0.30
2022-12-12T13:32:43.028Z,0.63
2022-12-12T13:35:12.521Z,0.41
2022-12-12T13:37:51.664Z,0.59
2022-12-12T13:40:28.910Z,0.05
2022-12-12T13:43:08.747Z,0.25
2022-12-12T13:45:46.126Z,-0.54
2022-12-12T13:48:35.540Z,0.26
2022-12-12T13:51:27.971Z,-0.50
2022-12-12T13:54:12.770Z,0.22
2022-12-12T13:56:44.227Z,-0.14
2022-12-12T13:59:30.059Z,0.32
2022-12-12T14:02:23.965Z,-0.43
2022-12-12T14:05:11.723Z,-0.16
2022-12-12T14:07:39.787Z,-0.16
2022-12-12T14:10:40.698Z,-0.50
2022-12-12T14:13:23.049Z,0.35
2022-12-12T14:16:05.874Z,-0.07
2022-12-12T14:18:58.381Z,-0.46
2022-12-12T14:21:44.417Z,-0.42
2022-12-12T14:24:30.619Z,-0.04
2022-12-12T14:26:58.540Z,0.74
2022-12-12T14:29:27.612Z,-1.03
2022-12-12T14:32:13.655Z,-0.96
2022-12-12T14:35:08.345Z,-0.51
2022-12-12T14:37:39.980Z,-0.16
2022-12-12T14:40:16.872Z,-1.26
2022-12-12T14:43:19.628Z,-1.12
2022-12-12T14:45:51.261Z,-0.17
2022-12-12T14:48:31.019Z,0.32
2022-12-12T14:51:15.932Z,-0.25
2022-12-12T14:53:51.081Z,-0.90
2022-12-12T14:56:21.545Z,0.11
2022-12-12T14:58:56.904Z,-0.31
2022-12-12T15:01:44.752Z,-0.65
2022-12-12T15:04:22.818Z,-0.62
2022-12-12T15:06:51.759Z,0.46
2022-12-12T15:09:27.254Z,-0.50
2022-12-12T15:12:10.755Z,-0.92
2022-12-12T15:14:39.357Z,-0.85
2022-12-12T15:17:09.315Z,-0.14
2022-12-12T15:19:41.497Z,-0.90
2022-12-12T15:22:25.048Z,-0.45
2022-12-12T15:24:55.995Z,-0.59
2022-12-12T15:27:41.953Z,-0.59
2022-12-12T15:30:27.857Z,-0.22
2022-12-12T15:32:55.441Z,0.33
2022-12-12T15:35:23.222Z,0.18
2022-12-12T15:38:12.795Z,0.75
2022-12-12T15:40:40.565Z,0.84
2022-12-12T15:43:14.950Z,0.92
2022-12-12T15:45:49.053Z,0.94
2022-12-12T15:48:16.804Z,1.04
2022-12-12T15:50:44.187Z,0.61
2022-12-12T15:53:27.382Z,0.61
2022-12-12T15:56:14.332Z,0.46
2022-12-12T15:58:46.309Z,0.48
2022-12-12T16:01:21.452Z,0.63
2022-12-12T16:03:53.245Z,0.77
2022-12-12T16:06:22.967Z,0.19
2022-12-12T16:08:54.430Z,0.20
2022-12-12T16:11:45.209Z,-0.21
2022-12-12T16:14:24.710Z,0.48
2022-12-12T16:17:03.959Z,-0.13
2022-12-12T16:19:40.936Z,0.02
2022-12-12T16:22:13.120Z,-0.05
2022-12-12T16:24:55.119Z,0.10
2022-12-12T16:27:22.531Z,-0.12
2022-12-12T16:29:50.167Z,0.23
2022-12-12T16:32:18.195Z,0.19
2022-12-12T16:34:45.961Z,0.43
2022-12-12T16:37:17.283Z,-0.12
2022-12-12T16:39:44.747Z,0.02
2022-12-12T16:42:16.307Z,-0.35
2022-12-12T16:44:43.984Z,0.17
2022-12-12T16:47:23.937Z,0.29
2022-12-12T16:49:51.670Z,0.63
2022-12-12T16:52:19.904Z,0.56
2022-12-12T16:54:53.301Z,0.45
2022-12-12T16:57:21.862Z,0.31
2022-12-12T16:59:49.221Z,0.63
2022-12-12T17:02:22.071Z,0.97
2022-12-12T17:04:49.935Z,0.11
2022-12-12T17:07:17.302Z,0.19
2022-12-12T17:09:45.030Z,1.11
2022-12-12T17:12:13.299Z,1.03
2022-12-12T17:14:40.740Z,0.93
2022-12-12T17:17:08.089Z,1.01
2022-12-12T17:19:35.747Z,0.88
2022-12-12T17:22:03.622Z,0.65
2022-12-12T17:24:30.972Z,0.59
2022-12-12T17:26:58.653Z,0.83
2022-12-12T17:29:25.986Z,0.69
2022-12-12T17:31:53.382Z,1.05
2022-12-12T17:34:21.011Z,0.84
2022-12-12T17:36:48.799Z,0.47
2022-12-12T17:39:16.246Z,0.52
2022-12-12T17:41:43.826Z,0.39
2022-12-12T17:44:11.162Z,0.37
2022-12-12T17:46:38.763Z,0.04
2022-12-12T17:49:06.359Z,0.14
2022-12-12T17:51:33.719Z,0.41
2022-12-12T17:54:01.125Z,0.53
2022-12-12T17:56:28.740Z,0.93
2022-12-12T17:58:56.308Z,0.77
2022-12-12T18:01:28.098Z,1.04
2022-12-12T18:03:56.044Z,1.10
2022-12-12T18:06:23.549Z,0.91
2022-12-12T18:08:52.447Z,0.37
2022-12-12T18:11:24.481Z,0.39
2022-12-12T18:13:53.925Z,0.81
2022-12-12T18:16:21.833Z,0.94
2022-12-12T18:18:52.239Z,1.13
2022-12-12T18:21:51.605Z,0.74
2022-12-12T18:24:09.010Z,0.94
2022-12-12T18:26:36.497Z,0.83
2022-12-12T18:29:05.013Z,1.15
2022-12-12T18:31:32.684Z,0.71
2022-12-12T18:34:00.095Z,0.69
2022-12-12T18:36:28.269Z,1.46
2022-12-12T18:38:56.278Z,1.27
2022-12-12T18:41:23.740Z,1.56
2022-12-12T18:43:51.159Z,1.44
2022-12-12T18:46:19.617Z,1.24
2022-12-12T18:48:47.393Z,1.23
2022-12-12T18:51:23.363Z,1.78
2022-12-12T18:53:51.940Z,1.63
2022-12-12T18:56:23.844Z,1.65
2022-12-12T18:58:55.585Z,1.27
2022-12-12T19:01:25.900Z,0.97
2022-12-12T19:03:54.016Z,1.54
2022-12-12T19:06:22.959Z,0.91
2022-12-12T19:08:50.287Z,1.29
2022-12-12T19:11:17.953Z,1.07
2022-12-12T19:13:46.449Z,0.58
2022-12-12T19:16:15.663Z,0.46
2022-12-12T19:18:43.524Z,0.35
2022-12-12T19:21:12.897Z,0.98
2022-12-12T19:23:40.428Z,-0.10
2022-12-12T19:26:09.800Z,0.12
2022-12-12T19:28:37.231Z,-0.07
2022-12-12T19:31:08.633Z,0.49
2022-12-12T19:33:36.327Z,0.11
2022-12-12T19:36:14.512Z,-0.38
2022-12-12T19:38:42.197Z,-0.35
2022-12-12T19:41:10.006Z,-0.10
2022-12-12T19:43:37.437Z,-0.52
2022-12-12T19:46:21.497Z,-0.02
2022-12-12T19:48:49.064Z,-0.29
2022-12-12T19:51:18.237Z,0.06
2022-12-12T19:53:50.130Z,-0.31
2022-12-12T19:56:19.583Z,-0.50
2022-12-12T19:58:47.141Z,0.02
2022-12-12T20:01:16.243Z,0.08
2022-12-12T20:03:48.837Z,0.44
2022-12-12T20:06:16.236Z,0.62
2022-12-12T20:08:43.954Z,0.59
2022-12-12T20:11:15.592Z,-0.35
2022-12-12T20:13:42.943Z,0.36
2022-12-12T20:16:12.764Z,0.11
2022-12-12T20:18:41.327Z,-0.27
2022-12-12T20:21:09.171Z,-0.01
2022-12-12T20:23:42.310Z,0.75
2022-12-12T20:26:15.315Z,0.52
2022-12-12T20:28:43.022Z,0.69
2022-12-12T20:31:12.855Z,0.51
2022-12-12T20:33:40.432Z,0.38
2022-12-12T20:36:18.925Z,0.17
2022-12-12T20:38:46.420Z,0.39
2022-12-12T20:41:18.243Z,0.21
2022-12-12T20:43:45.605Z,0.34
2022-12-12T20:46:14.708Z,-0.28
2022-12-12T20:48:42.488Z,-0.06
2022-12-12T20:51:30.997Z,0.09
2022-12-12T20:54:00.630Z,-0.05
2022-12-12T20:56:28.162Z,0.52
2022-12-12T20:58:56.298Z,0.68
2022-12-12T21:01:25.586Z,-0.05
2022-12-12T21:03:53.644Z,0.25
2022-12-12T21:06:31.776Z,0.19
2022-12-12T21:09:00.606Z,-0.06
2022-12-12T21:11:29.479Z,-0.54
2022-12-12T21:13:56.889Z,-0.02
2022-12-12T21:16:33.323Z,-0.18
2022-12-12T21:19:02.847Z,-0.14
2022-12-12T21:21:30.504Z,0.21
2022-12-12T21:23:58.025Z,-0.29
2022-12-12T21:26:29.229Z,0.01
2022-12-12T21:28:57.483Z,-0.32
2022-12-12T21:31:26.676Z,0.27
2022-12-12T21:33:54.116Z,-0.02
2022-12-12T21:36:22.419Z,-0.21
2022-12-12T21:38:50.219Z,0.36
2022-12-12T21:41:19.929Z,0.61
2022-12-12T21:43:47.621Z,0.42
2022-12-12T21:46:16.753Z,0.17
2022-12-12T21:48:44.195Z,-0.05
2022-12-12T21:51:14.242Z,-0.25
2022-12-12T21:53:41.768Z,-0.46
2022-12-12T21:56:09.970Z,-0.56
2022-12-12T21:58:38.163Z,-0.85
2022-12-12T22:01:09.011Z,-0.31
2022-12-12T22:03:36.777Z,-0.21
2022-12-12T22:06:14.999Z,-0.31
2022-12-12T22:08:42.577Z,-0.35
2022-12-12T22:11:10.232Z,-0.76
2022-12-12T22:13:40.016Z,-0.60
2022-12-12T22:16:10.682Z,-0.42
2022-12-12T22:18:38.520Z,-0.95
2022-12-12T22:21:07.078Z,-0.42
2022-12-12T22:23:39.624Z,-0.90
2022-12-12T22:26:18.819Z,-0.93
2022-12-12T22:28:47.226Z,-1.15
2022-12-12T22:31:14.656Z,-1.15
2022-12-12T22:33:42.106Z,-0.77
2022-12-12T22:36:09.940Z,-1.09
2022-12-12T22:38:38.439Z,-1.14
2022-12-12T22:41:06.312Z,-0.68
2022-12-12T22:43:34.305Z,-1.01
2022-12-12T22:46:07.835Z,-1.57
2022-12-12T22:48:35.620Z,-0.97
2022-12-12T22:51:16.557Z,-1.03
2022-12-12T22:53:44.622Z,-0.83
2022-12-12T22:56:12.503Z,-1.13
2022-12-12T22:58:39.884Z,-1.22
2022-12-12T23:01:08.339Z,-1.42
2022-12-12T23:03:35.748Z,-1.77
2022-12-12T23:06:07.396Z,-1.65
2022-12-12T23:08:35.047Z,-1.14
2022-12-12T23:11:11.577Z,-1.24
2022-12-12T23:13:40.109Z,-1.16
2022-12-12T23:16:08.375Z,-1.01
2022-12-12T23:18:36.536Z,-0.57
2022-12-12T23:21:05.336Z,-0.91
2022-12-12T23:23:34.198Z,-1.03
2022-12-12T23:26:08.310Z,-0.71
2022-12-12T23:28:36.482Z,-0.82
2022-12-12T23:31:08.023Z,-0.96
2022-12-12T23:33:35.972Z,-0.61
2022-12-12T23:36:04.030Z,-0.52
2022-12-12T23:38:31.422Z,-0.59
2022-12-12T23:41:05.552Z,-0.74
2022-12-12T23:43:33.094Z,-0.90
2022-12-12T23:46:04.956Z,-0.82
2022-12-12T23:48:32.356Z,-0.58
2022-12-12T23:50:59.686Z,-0.47
2022-12-12T23:53:27.336Z,-0.58
2022-12-12T23:55:54.661Z,-0.28
2022-12-12T23:58:22.053Z,-0.77
